sensor_id;sensor_type;location;lat;lon;timestamp;P1;durP1;ratioP1;P2;durP2;ratioP2
37851;SDS011;23691;52.486;4.650;2023-04-24T00:01:49;4.57;;;0.80;;
37851;SDS011;23691;52.486;4.650;2023-04-24T00:04:15;3.40;;;0.80;;
37851;SDS011;23691;52.486;4.650;2023-04-24T00:06:41;2.70;;;0.70;;
37851;SDS011;23691;52.486;4.650;2023-04-24T00:09:08;4.10;;;0.80;;
37851;SDS011;23691;52.486;4.650;2023-04-24T00:11:35;3.15;;;0.90;;
37851;SDS011;23691;52.486;4.650;2023-04-24T00:14:01;3.78;;;0.90;;
37851;SDS011;23691;52.486;4.650;2023-04-24T00:16:26;2.85;;;0.75;;
37851;SDS011;23691;52.486;4.650;2023-04-24T00:18:52;2.65;;;0.70;;
37851;SDS011;23691;52.486;4.650;2023-04-24T00:21:21;3.78;;;0.95;;
37851;SDS011;23691;52.486;4.650;2023-04-24T00:23:47;3.60;;;0.90;;
37851;SDS011;23691;52.486;4.650;2023-04-24T00:26:13;2.53;;;0.75;;
37851;SDS011;23691;52.486;4.650;2023-04-24T00:28:38;2.72;;;0.88;;
37851;SDS011;23691;52.486;4.650;2023-04-24T00:31:04;4.20;;;1.02;;
37851;SDS011;23691;52.486;4.650;2023-04-24T00:33:29;5.30;;;1.23;;
37851;SDS011;23691;52.486;4.650;2023-04-24T00:35:55;4.93;;;1.10;;
37851;SDS011;23691;52.486;4.650;2023-04-24T00:38:20;4.60;;;1.10;;
37851;SDS011;23691;52.486;4.650;2023-04-24T00:40:47;4.05;;;1.30;;
37851;SDS011;23691;52.486;4.650;2023-04-24T00:43:14;4.20;;;1.10;;
37851;SDS011;23691;52.486;4.650;2023-04-24T00:45:40;6.55;;;1.45;;
37851;SDS011;23691;52.486;4.650;2023-04-24T00:48:06;7.20;;;1.80;;
37851;SDS011;23691;52.486;4.650;2023-04-24T00:50:32;7.10;;;2.10;;
37851;SDS011;23691;52.486;4.650;2023-04-24T00:52:57;8.43;;;2.53;;
37851;SDS011;23691;52.486;4.650;2023-04-24T00:55:23;11.90;;;3.35;;
37851;SDS011;23691;52.486;4.650;2023-04-24T00:57:49;7.63;;;3.20;;
37851;SDS011;23691;52.486;4.650;2023-04-24T01:00:15;8.10;;;3.75;;
37851;SDS011;23691;52.486;4.650;2023-04-24T01:02:41;12.07;;;3.60;;
37851;SDS011;23691;52.486;4.650;2023-04-24T01:05:14;9.20;;;3.25;;
37851;SDS011;23691;52.486;4.650;2023-04-24T01:07:40;9.63;;;3.90;;
37851;SDS011;23691;52.486;4.650;2023-04-24T01:10:09;11.07;;;3.78;;
37851;SDS011;23691;52.486;4.650;2023-04-24T01:12:35;9.32;;;3.85;;
37851;SDS011;23691;52.486;4.650;2023-04-24T01:15:00;13.90;;;5.07;;
37851;SDS011;23691;52.486;4.650;2023-04-24T01:17:26;12.15;;;5.20;;
37851;SDS011;23691;52.486;4.650;2023-04-24T01:19:51;15.30;;;5.70;;
37851;SDS011;23691;52.486;4.650;2023-04-24T01:22:21;16.98;;;5.82;;
37851;SDS011;23691;52.486;4.650;2023-04-24T01:24:47;13.95;;;5.65;;
37851;SDS011;23691;52.486;4.650;2023-04-24T01:27:13;14.00;;;4.68;;
37851;SDS011;23691;52.486;4.650;2023-04-24T01:29:38;14.10;;;5.20;;
37851;SDS011;23691;52.486;4.650;2023-04-24T01:32:04;11.82;;;3.50;;
37851;SDS011;23691;52.486;4.650;2023-04-24T01:34:30;11.18;;;2.80;;
37851;SDS011;23691;52.486;4.650;2023-04-24T01:36:56;9.15;;;2.70;;
37851;SDS011;23691;52.486;4.650;2023-04-24T01:39:21;10.45;;;2.33;;
37851;SDS011;23691;52.486;4.650;2023-04-24T01:41:54;6.63;;;1.50;;
37851;SDS011;23691;52.486;4.650;2023-04-24T01:44:20;10.00;;;1.40;;
37851;SDS011;23691;52.486;4.650;2023-04-24T01:46:45;9.70;;;1.70;;
37851;SDS011;23691;52.486;4.650;2023-04-24T01:49:11;7.15;;;1.80;;
37851;SDS011;23691;52.486;4.650;2023-04-24T01:51:37;9.25;;;1.60;;
37851;SDS011;23691;52.486;4.650;2023-04-24T01:54:02;8.65;;;1.42;;
37851;SDS011;23691;52.486;4.650;2023-04-24T01:56:31;14.20;;;1.83;;
37851;SDS011;23691;52.486;4.650;2023-04-24T01:59:00;15.02;;;2.20;;
37851;SDS011;23691;52.486;4.650;2023-04-24T02:01:29;18.07;;;2.13;;
37851;SDS011;23691;52.486;4.650;2023-04-24T02:03:59;17.42;;;2.22;;
37851;SDS011;23691;52.486;4.650;2023-04-24T02:06:25;16.88;;;2.00;;
37851;SDS011;23691;52.486;4.650;2023-04-24T02:08:50;12.38;;;1.85;;
37851;SDS011;23691;52.486;4.650;2023-04-24T02:11:16;9.38;;;1.50;;
37851;SDS011;23691;52.486;4.650;2023-04-24T02:13:41;9.95;;;1.45;;
37851;SDS011;23691;52.486;4.650;2023-04-24T02:16:06;7.32;;;1.48;;
37851;SDS011;23691;52.486;4.650;2023-04-24T02:18:32;7.47;;;1.50;;
37851;SDS011;23691;52.486;4.650;2023-04-24T02:20:57;9.68;;;2.00;;
37851;SDS011;23691;52.486;4.650;2023-04-24T02:23:22;9.20;;;2.13;;
37851;SDS011;23691;52.486;4.650;2023-04-24T02:25:48;14.43;;;2.33;;
37851;SDS011;23691;52.486;4.650;2023-04-24T02:28:14;12.20;;;2.47;;
37851;SDS011;23691;52.486;4.650;2023-04-24T02:30:39;15.82;;;2.45;;
37851;SDS011;23691;52.486;4.650;2023-04-24T02:33:05;11.30;;;1.98;;
37851;SDS011;23691;52.486;4.650;2023-04-24T02:35:30;13.15;;;1.83;;
37851;SDS011;23691;52.486;4.650;2023-04-24T02:37:55;14.00;;;2.00;;
37851;SDS011;23691;52.486;4.650;2023-04-24T02:40:23;10.93;;;1.50;;
37851;SDS011;23691;52.486;4.650;2023-04-24T02:42:49;9.02;;;1.35;;
37851;SDS011;23691;52.486;4.650;2023-04-24T02:45:14;16.02;;;1.55;;
37851;SDS011;23691;52.486;4.650;2023-04-24T02:47:41;11.00;;;1.42;;
37851;SDS011;23691;52.486;4.650;2023-04-24T02:50:06;9.75;;;1.30;;
37851;SDS011;23691;52.486;4.650;2023-04-24T02:52:32;5.63;;;1.10;;
37851;SDS011;23691;52.486;4.650;2023-04-24T02:54:57;7.72;;;1.23;;
37851;SDS011;23691;52.486;4.650;2023-04-24T02:57:23;8.98;;;1.13;;
37851;SDS011;23691;52.486;4.650;2023-04-24T02:59:48;11.32;;;1.13;;
37851;SDS011;23691;52.486;4.650;2023-04-24T03:02:14;5.70;;;1.08;;
37851;SDS011;23691;52.486;4.650;2023-04-24T03:04:40;6.00;;;1.10;;
37851;SDS011;23691;52.486;4.650;2023-04-24T03:07:05;10.32;;;1.30;;
37851;SDS011;23691;52.486;4.650;2023-04-24T03:09:30;10.23;;;1.08;;
37851;SDS011;23691;52.486;4.650;2023-04-24T03:11:56;3.95;;;0.70;;
37851;SDS011;23691;52.486;4.650;2023-04-24T03:14:23;7.05;;;1.02;;
37851;SDS011;23691;52.486;4.650;2023-04-24T03:16:51;5.60;;;0.90;;
37851;SDS011;23691;52.486;4.650;2023-04-24T03:19:16;11.75;;;1.40;;
37851;SDS011;23691;52.486;4.650;2023-04-24T03:21:42;10.85;;;1.48;;
37851;SDS011;23691;52.486;4.650;2023-04-24T03:24:08;12.07;;;1.20;;
37851;SDS011;23691;52.486;4.650;2023-04-24T03:26:34;11.88;;;1.45;;
37851;SDS011;23691;52.486;4.650;2023-04-24T03:29:00;9.88;;;1.60;;
37851;SDS011;23691;52.486;4.650;2023-04-24T03:31:25;13.57;;;2.00;;
37851;SDS011;23691;52.486;4.650;2023-04-24T03:33:50;13.82;;;2.15;;
37851;SDS011;23691;52.486;4.650;2023-04-24T03:36:16;16.23;;;3.00;;
37851;SDS011;23691;52.486;4.650;2023-04-24T03:38:42;14.32;;;2.30;;
37851;SDS011;23691;52.486;4.650;2023-04-24T03:41:07;13.77;;;2.40;;
37851;SDS011;23691;52.486;4.650;2023-04-24T03:43:33;12.50;;;2.70;;
37851;SDS011;23691;52.486;4.650;2023-04-24T03:46:00;12.23;;;2.28;;
37851;SDS011;23691;52.486;4.650;2023-04-24T03:48:26;15.95;;;2.47;;
37851;SDS011;23691;52.486;4.650;2023-04-24T03:50:51;9.38;;;1.77;;
37851;SDS011;23691;52.486;4.650;2023-04-24T03:53:16;8.57;;;1.45;;
37851;SDS011;23691;52.486;4.650;2023-04-24T03:55:42;8.13;;;1.50;;
37851;SDS011;23691;52.486;4.650;2023-04-24T03:58:07;7.70;;;1.40;;
37851;SDS011;23691;52.486;4.650;2023-04-24T04:00:33;10.95;;;1.45;;
37851;SDS011;23691;52.486;4.650;2023-04-24T04:02:59;10.27;;;1.65;;
37851;SDS011;23691;52.486;4.650;2023-04-24T04:05:25;8.55;;;1.35;;
37851;SDS011;23691;52.486;4.650;2023-04-24T04:07:50;7.40;;;1.35;;
37851;SDS011;23691;52.486;4.650;2023-04-24T04:10:15;6.53;;;1.20;;
37851;SDS011;23691;52.486;4.650;2023-04-24T04:12:42;6.53;;;1.20;;
37851;SDS011;23691;52.486;4.650;2023-04-24T04:15:07;5.05;;;0.90;;
37851;SDS011;23691;52.486;4.650;2023-04-24T04:17:33;5.95;;;1.20;;
37851;SDS011;23691;52.486;4.650;2023-04-24T04:19:58;6.32;;;1.55;;
37851;SDS011;23691;52.486;4.650;2023-04-24T04:22:24;6.35;;;1.52;;
37851;SDS011;23691;52.486;4.650;2023-04-24T04:24:49;9.95;;;1.70;;
37851;SDS011;23691;52.486;4.650;2023-04-24T04:27:16;7.40;;;1.40;;
37851;SDS011;23691;52.486;4.650;2023-04-24T04:29:41;8.68;;;1.55;;
37851;SDS011;23691;52.486;4.650;2023-04-24T04:32:07;6.28;;;1.40;;
37851;SDS011;23691;52.486;4.650;2023-04-24T04:34:32;7.30;;;1.80;;
37851;SDS011;23691;52.486;4.650;2023-04-24T04:36:58;10.60;;;1.73;;
37851;SDS011;23691;52.486;4.650;2023-04-24T04:39:26;12.82;;;2.03;;
37851;SDS011;23691;52.486;4.650;2023-04-24T04:41:56;12.80;;;2.53;;
37851;SDS011;23691;52.486;4.650;2023-04-24T04:44:22;11.52;;;3.38;;
37851;SDS011;23691;52.486;4.650;2023-04-24T04:46:48;16.10;;;3.88;;
37851;SDS011;23691;52.486;4.650;2023-04-24T04:49:15;15.27;;;4.53;;
37851;SDS011;23691;52.486;4.650;2023-04-24T04:51:42;19.45;;;6.45;;
37851;SDS011;23691;52.486;4.650;2023-04-24T04:54:07;18.48;;;7.05;;
37851;SDS011;23691;52.486;4.650;2023-04-24T04:56:32;20.80;;;7.43;;
37851;SDS011;23691;52.486;4.650;2023-04-24T04:58:58;16.10;;;6.35;;
37851;SDS011;23691;52.486;4.650;2023-04-24T05:01:24;18.27;;;7.53;;
37851;SDS011;23691;52.486;4.650;2023-04-24T05:06:18;32.38;;;14.30;;
37851;SDS011;23691;52.486;4.650;2023-04-24T05:08:43;36.30;;;16.63;;
37851;SDS011;23691;52.486;4.650;2023-04-24T05:11:11;39.13;;;16.25;;
37851;SDS011;23691;52.486;4.650;2023-04-24T05:13:38;34.60;;;15.10;;
37851;SDS011;23691;52.486;4.650;2023-04-24T05:16:03;31.17;;;13.68;;
37851;SDS011;23691;52.486;4.650;2023-04-24T05:18:29;30.88;;;13.52;;
37851;SDS011;23691;52.486;4.650;2023-04-24T05:20:54;32.05;;;12.00;;
37851;SDS011;23691;52.486;4.650;2023-04-24T05:23:20;25.63;;;11.98;;
37851;SDS011;23691;52.486;4.650;2023-04-24T05:25:48;31.92;;;11.43;;
37851;SDS011;23691;52.486;4.650;2023-04-24T05:28:13;24.67;;;10.93;;
37851;SDS011;23691;52.486;4.650;2023-04-24T05:30:39;30.17;;;11.13;;
37851;SDS011;23691;52.486;4.650;2023-04-24T05:33:04;29.88;;;10.32;;
37851;SDS011;23691;52.486;4.650;2023-04-24T05:35:30;25.27;;;10.65;;
37851;SDS011;23691;52.486;4.650;2023-04-24T05:37:55;25.23;;;9.95;;
37851;SDS011;23691;52.486;4.650;2023-04-24T05:40:20;27.70;;;9.77;;
37851;SDS011;23691;52.486;4.650;2023-04-24T05:42:46;22.42;;;9.05;;
37851;SDS011;23691;52.486;4.650;2023-04-24T05:45:11;24.90;;;9.50;;
37851;SDS011;23691;52.486;4.650;2023-04-24T05:47:41;25.60;;;8.52;;
37851;SDS011;23691;52.486;4.650;2023-04-24T05:50:07;30.38;;;8.90;;
37851;SDS011;23691;52.486;4.650;2023-04-24T05:52:32;30.92;;;9.32;;
37851;SDS011;23691;52.486;4.650;2023-04-24T05:54:58;23.48;;;8.25;;
37851;SDS011;23691;52.486;4.650;2023-04-24T05:57:23;27.55;;;9.00;;
37851;SDS011;23691;52.486;4.650;2023-04-24T05:59:48;31.77;;;9.02;;
37851;SDS011;23691;52.486;4.650;2023-04-24T06:02:14;28.15;;;8.35;;
37851;SDS011;23691;52.486;4.650;2023-04-24T06:04:39;28.75;;;8.10;;
37851;SDS011;23691;52.486;4.650;2023-04-24T06:07:04;25.50;;;7.80;;
37851;SDS011;23691;52.486;4.650;2023-04-24T06:09:31;18.30;;;7.43;;
37851;SDS011;23691;52.486;4.650;2023-04-24T06:11:56;23.90;;;7.80;;
37851;SDS011;23691;52.486;4.650;2023-04-24T06:14:25;22.58;;;7.47;;
37851;SDS011;23691;52.486;4.650;2023-04-24T06:16:51;29.63;;;7.95;;
37851;SDS011;23691;52.486;4.650;2023-04-24T06:19:16;28.55;;;7.45;;
37851;SDS011;23691;52.486;4.650;2023-04-24T06:21:41;34.50;;;6.82;;
37851;SDS011;23691;52.486;4.650;2023-04-24T06:24:09;30.20;;;6.68;;
37851;SDS011;23691;52.486;4.650;2023-04-24T06:26:35;23.67;;;6.97;;
37851;SDS011;23691;52.486;4.650;2023-04-24T06:29:01;24.65;;;6.50;;
37851;SDS011;23691;52.486;4.650;2023-04-24T06:31:26;27.00;;;6.80;;
37851;SDS011;23691;52.486;4.650;2023-04-24T06:33:52;25.40;;;6.15;;
37851;SDS011;23691;52.486;4.650;2023-04-24T06:36:17;30.13;;;7.05;;
37851;SDS011;23691;52.486;4.650;2023-04-24T06:38:42;28.27;;;6.40;;
37851;SDS011;23691;52.486;4.650;2023-04-24T06:41:09;29.65;;;6.10;;
37851;SDS011;23691;52.486;4.650;2023-04-24T06:43:35;26.10;;;5.50;;
37851;SDS011;23691;52.486;4.650;2023-04-24T06:46:00;32.13;;;5.68;;
37851;SDS011;23691;52.486;4.650;2023-04-24T06:48:25;28.33;;;5.60;;
37851;SDS011;23691;52.486;4.650;2023-04-24T06:50:51;27.65;;;5.35;;
37851;SDS011;23691;52.486;4.650;2023-04-24T06:53:17;34.45;;;5.50;;
37851;SDS011;23691;52.486;4.650;2023-04-24T06:55:43;35.50;;;6.22;;
37851;SDS011;23691;52.486;4.650;2023-04-24T06:58:10;27.83;;;5.78;;
37851;SDS011;23691;52.486;4.650;2023-04-24T07:00:35;29.45;;;5.82;;
37851;SDS011;23691;52.486;4.650;2023-04-24T07:03:01;32.58;;;4.78;;
37851;SDS011;23691;52.486;4.650;2023-04-24T07:05:27;28.52;;;4.50;;
37851;SDS011;23691;52.486;4.650;2023-04-24T07:07:53;32.53;;;5.28;;
37851;SDS011;23691;52.486;4.650;2023-04-24T07:10:18;20.67;;;4.00;;
37851;SDS011;23691;52.486;4.650;2023-04-24T07:12:45;28.17;;;4.30;;
37851;SDS011;23691;52.486;4.650;2023-04-24T07:15:11;28.80;;;4.35;;
37851;SDS011;23691;52.486;4.650;2023-04-24T07:17:36;25.20;;;4.57;;
37851;SDS011;23691;52.486;4.650;2023-04-24T07:20:03;37.42;;;4.60;;
37851;SDS011;23691;52.486;4.650;2023-04-24T07:22:29;28.85;;;4.18;;
37851;SDS011;23691;52.486;4.650;2023-04-24T07:24:55;25.90;;;3.72;;
37851;SDS011;23691;52.486;4.650;2023-04-24T07:27:20;22.98;;;4.00;;
37851;SDS011;23691;52.486;4.650;2023-04-24T07:29:46;23.77;;;4.55;;
37851;SDS011;23691;52.486;4.650;2023-04-24T07:32:11;22.25;;;4.03;;
37851;SDS011;23691;52.486;4.650;2023-04-24T07:34:36;27.23;;;4.10;;
37851;SDS011;23691;52.486;4.650;2023-04-24T07:37:01;26.23;;;3.85;;
37851;SDS011;23691;52.486;4.650;2023-04-24T07:39:27;22.42;;;3.30;;
37851;SDS011;23691;52.486;4.650;2023-04-24T07:41:54;22.27;;;3.42;;
37851;SDS011;23691;52.486;4.650;2023-04-24T07:44:19;26.77;;;3.65;;
37851;SDS011;23691;52.486;4.650;2023-04-24T07:46:45;20.73;;;3.25;;
37851;SDS011;23691;52.486;4.650;2023-04-24T07:49:10;20.77;;;3.08;;
37851;SDS011;23691;52.486;4.650;2023-04-24T07:51:35;20.92;;;3.72;;
37851;SDS011;23691;52.486;4.650;2023-04-24T07:54:03;22.13;;;3.92;;
37851;SDS011;23691;52.486;4.650;2023-04-24T07:56:31;22.42;;;4.00;;
37851;SDS011;23691;52.486;4.650;2023-04-24T07:58:56;19.98;;;4.03;;
37851;SDS011;23691;52.486;4.650;2023-04-24T08:01:22;21.48;;;4.10;;
37851;SDS011;23691;52.486;4.650;2023-04-24T08:03:47;17.58;;;2.75;;
37851;SDS011;23691;52.486;4.650;2023-04-24T08:06:13;18.48;;;3.33;;
37851;SDS011;23691;52.486;4.650;2023-04-24T08:08:38;19.77;;;4.80;;
37851;SDS011;23691;52.486;4.650;2023-04-24T08:11:03;20.00;;;4.30;;
37851;SDS011;23691;52.486;4.650;2023-04-24T08:13:29;17.73;;;4.55;;
37851;SDS011;23691;52.486;4.650;2023-04-24T08:15:54;21.25;;;4.95;;
37851;SDS011;23691;52.486;4.650;2023-04-24T08:18:21;18.42;;;4.38;;
37851;SDS011;23691;52.486;4.650;2023-04-24T08:20:47;22.35;;;5.05;;
37851;SDS011;23691;52.486;4.650;2023-04-24T08:23:13;22.88;;;4.28;;
37851;SDS011;23691;52.486;4.650;2023-04-24T08:25:38;24.42;;;4.00;;
37851;SDS011;23691;52.486;4.650;2023-04-24T08:28:05;20.38;;;3.55;;
37851;SDS011;23691;52.486;4.650;2023-04-24T08:30:31;20.27;;;3.92;;
37851;SDS011;23691;52.486;4.650;2023-04-24T08:32:56;18.02;;;3.58;;
37851;SDS011;23691;52.486;4.650;2023-04-24T08:35:22;17.77;;;3.58;;
37851;SDS011;23691;52.486;4.650;2023-04-24T08:37:48;21.30;;;3.15;;
37851;SDS011;23691;52.486;4.650;2023-04-24T08:40:13;18.70;;;3.10;;
37851;SDS011;23691;52.486;4.650;2023-04-24T08:42:43;16.88;;;3.00;;
37851;SDS011;23691;52.486;4.650;2023-04-24T08:45:12;16.65;;;2.97;;
37851;SDS011;23691;52.486;4.650;2023-04-24T08:47:39;19.30;;;4.35;;
37851;SDS011;23691;52.486;4.650;2023-04-24T08:50:05;14.30;;;2.60;;
37851;SDS011;23691;52.486;4.650;2023-04-24T08:52:32;16.23;;;3.78;;
37851;SDS011;23691;52.486;4.650;2023-04-24T08:54:59;16.80;;;2.92;;
37851;SDS011;23691;52.486;4.650;2023-04-24T08:57:26;18.73;;;3.15;;
37851;SDS011;23691;52.486;4.650;2023-04-24T08:59:51;28.23;;;3.42;;
37851;SDS011;23691;52.486;4.650;2023-04-24T09:02:18;17.60;;;2.78;;
37851;SDS011;23691;52.486;4.650;2023-04-24T09:04:44;18.10;;;2.78;;
37851;SDS011;23691;52.486;4.650;2023-04-24T09:07:12;15.88;;;2.67;;
37851;SDS011;23691;52.486;4.650;2023-04-24T09:09:39;14.13;;;2.03;;
37851;SDS011;23691;52.486;4.650;2023-04-24T09:12:06;18.52;;;2.10;;
37851;SDS011;23691;52.486;4.650;2023-04-24T09:14:34;13.57;;;1.95;;
37851;SDS011;23691;52.486;4.650;2023-04-24T09:17:01;14.43;;;2.20;;
37851;SDS011;23691;52.486;4.650;2023-04-24T09:19:26;14.35;;;2.25;;
37851;SDS011;23691;52.486;4.650;2023-04-24T09:21:51;15.40;;;2.05;;
37851;SDS011;23691;52.486;4.650;2023-04-24T09:24:18;11.45;;;1.98;;
37851;SDS011;23691;52.486;4.650;2023-04-24T09:26:47;14.38;;;2.22;;
37851;SDS011;23691;52.486;4.650;2023-04-24T09:29:14;12.20;;;2.00;;
37851;SDS011;23691;52.486;4.650;2023-04-24T09:31:43;11.40;;;2.00;;
37851;SDS011;23691;52.486;4.650;2023-04-24T09:34:10;15.40;;;1.80;;
37851;SDS011;23691;52.486;4.650;2023-04-24T09:36:37;11.27;;;1.80;;
37851;SDS011;23691;52.486;4.650;2023-04-24T09:39:04;11.82;;;1.88;;
37851;SDS011;23691;52.486;4.650;2023-04-24T09:41:33;7.95;;;1.50;;
37851;SDS011;23691;52.486;4.650;2023-04-24T09:44:21;8.65;;;1.33;;
37851;SDS011;23691;52.486;4.650;2023-04-24T09:46:55;4.90;;;1.10;;
37851;SDS011;23691;52.486;4.650;2023-04-24T09:49:23;7.40;;;1.45;;
37851;SDS011;23691;52.486;4.650;2023-04-24T09:51:50;8.93;;;1.23;;
37851;SDS011;23691;52.486;4.650;2023-04-24T09:54:16;11.25;;;1.40;;
37851;SDS011;23691;52.486;4.650;2023-04-24T09:56:44;11.60;;;1.60;;
37851;SDS011;23691;52.486;4.650;2023-04-24T09:59:10;10.90;;;1.45;;
37851;SDS011;23691;52.486;4.650;2023-04-24T10:01:35;14.10;;;1.83;;
37851;SDS011;23691;52.486;4.650;2023-04-24T10:04:03;10.83;;;1.97;;
37851;SDS011;23691;52.486;4.650;2023-04-24T10:06:35;12.18;;;2.00;;
37851;SDS011;23691;52.486;4.650;2023-04-24T10:09:01;14.73;;;2.00;;
37851;SDS011;23691;52.486;4.650;2023-04-24T10:11:27;18.23;;;2.85;;
37851;SDS011;23691;52.486;4.650;2023-04-24T10:13:53;12.90;;;1.90;;
37851;SDS011;23691;52.486;4.650;2023-04-24T10:16:18;9.93;;;1.42;;
37851;SDS011;23691;52.486;4.650;2023-04-24T10:18:46;11.35;;;1.13;;
37851;SDS011;23691;52.486;4.650;2023-04-24T10:21:14;9.55;;;1.40;;
37851;SDS011;23691;52.486;4.650;2023-04-24T10:23:39;10.57;;;1.23;;
37851;SDS011;23691;52.486;4.650;2023-04-24T10:26:06;12.48;;;2.00;;
37851;SDS011;23691;52.486;4.650;2023-04-24T10:28:34;14.43;;;1.93;;
37851;SDS011;23691;52.486;4.650;2023-04-24T10:31:01;12.60;;;1.70;;
37851;SDS011;23691;52.486;4.650;2023-04-24T10:33:27;9.15;;;1.70;;
37851;SDS011;23691;52.486;4.650;2023-04-24T10:35:54;12.57;;;1.40;;
37851;SDS011;23691;52.486;4.650;2023-04-24T10:38:24;11.75;;;2.00;;
37851;SDS011;23691;52.486;4.650;2023-04-24T10:41:11;9.45;;;1.80;;
37851;SDS011;23691;52.486;4.650;2023-04-24T10:43:44;11.88;;;1.52;;
37851;SDS011;23691;52.486;4.650;2023-04-24T10:46:10;10.30;;;1.48;;
37851;SDS011;23691;52.486;4.650;2023-04-24T10:48:44;16.50;;;1.70;;
37851;SDS011;23691;52.486;4.650;2023-04-24T10:51:18;10.73;;;1.70;;
37851;SDS011;23691;52.486;4.650;2023-04-24T10:53:47;13.85;;;1.80;;
37851;SDS011;23691;52.486;4.650;2023-04-24T10:56:15;12.02;;;1.77;;
37851;SDS011;23691;52.486;4.650;2023-04-24T10:58:45;12.95;;;1.70;;
37851;SDS011;23691;52.486;4.650;2023-04-24T11:01:24;11.50;;;1.35;;
37851;SDS011;23691;52.486;4.650;2023-04-24T11:03:54;10.48;;;1.63;;
37851;SDS011;23691;52.486;4.650;2023-04-24T11:09:03;9.63;;;1.42;;
37851;SDS011;23691;52.486;4.650;2023-04-24T11:11:31;12.80;;;1.40;;
37851;SDS011;23691;52.486;4.650;2023-04-24T11:16:35;14.67;;;1.73;;
37851;SDS011;23691;52.486;4.650;2023-04-24T11:21:42;12.15;;;2.05;;
37851;SDS011;23691;52.486;4.650;2023-04-24T11:26:53;15.73;;;2.25;;
37851;SDS011;23691;52.486;4.650;2023-04-24T11:31:45;18.73;;;2.60;;
37851;SDS011;23691;52.486;4.650;2023-04-24T11:34:17;17.90;;;2.70;;
37851;SDS011;23691;52.486;4.650;2023-04-24T11:36:46;18.77;;;2.88;;
37851;SDS011;23691;52.486;4.650;2023-04-24T11:39:13;13.93;;;2.50;;
37851;SDS011;23691;52.486;4.650;2023-04-24T11:41:39;12.35;;;2.38;;
37851;SDS011;23691;52.486;4.650;2023-04-24T11:44:06;16.50;;;2.20;;
37851;SDS011;23691;52.486;4.650;2023-04-24T11:46:33;15.90;;;2.70;;
37851;SDS011;23691;52.486;4.650;2023-04-24T11:48:59;14.50;;;2.22;;
37851;SDS011;23691;52.486;4.650;2023-04-24T11:51:25;17.70;;;2.60;;
37851;SDS011;23691;52.486;4.650;2023-04-24T11:53:55;19.63;;;2.90;;
37851;SDS011;23691;52.486;4.650;2023-04-24T11:56:21;19.40;;;3.22;;
37851;SDS011;23691;52.486;4.650;2023-04-24T11:58:48;22.50;;;3.28;;
37851;SDS011;23691;52.486;4.650;2023-04-24T12:01:13;21.80;;;3.58;;
37851;SDS011;23691;52.486;4.650;2023-04-24T12:03:39;20.67;;;3.65;;
37851;SDS011;23691;52.486;4.650;2023-04-24T12:06:08;20.88;;;3.72;;
37851;SDS011;23691;52.486;4.650;2023-04-24T12:08:35;21.75;;;3.47;;
37851;SDS011;23691;52.486;4.650;2023-04-24T12:11:02;21.02;;;2.90;;
37851;SDS011;23691;52.486;4.650;2023-04-24T12:13:28;21.10;;;3.38;;
37851;SDS011;23691;52.486;4.650;2023-04-24T12:15:54;17.33;;;3.55;;
37851;SDS011;23691;52.486;4.650;2023-04-24T12:18:24;19.63;;;3.03;;
37851;SDS011;23691;52.486;4.650;2023-04-24T12:20:52;21.20;;;4.57;;
37851;SDS011;23691;52.486;4.650;2023-04-24T12:26:03;21.38;;;4.63;;
37851;SDS011;23691;52.486;4.650;2023-04-24T12:28:34;22.23;;;3.75;;
37851;SDS011;23691;52.486;4.650;2023-04-24T12:31:03;18.33;;;3.75;;
37851;SDS011;23691;52.486;4.650;2023-04-24T12:33:35;17.63;;;2.85;;
37851;SDS011;23691;52.486;4.650;2023-04-24T12:36:00;22.33;;;3.53;;
37851;SDS011;23691;52.486;4.650;2023-04-24T12:38:29;23.55;;;3.10;;
37851;SDS011;23691;52.486;4.650;2023-04-24T12:41:05;19.35;;;3.63;;
37851;SDS011;23691;52.486;4.650;2023-04-24T12:43:32;21.07;;;3.60;;
37851;SDS011;23691;52.486;4.650;2023-04-24T12:45:58;21.52;;;3.53;;
37851;SDS011;23691;52.486;4.650;2023-04-24T12:48:24;22.80;;;3.85;;
37851;SDS011;23691;52.486;4.650;2023-04-24T12:50:53;18.02;;;2.72;;
37851;SDS011;23691;52.486;4.650;2023-04-24T12:53:20;18.30;;;2.80;;
37851;SDS011;23691;52.486;4.650;2023-04-24T12:55:45;20.48;;;2.97;;
37851;SDS011;23691;52.486;4.650;2023-04-24T12:58:17;18.52;;;3.10;;
37851;SDS011;23691;52.486;4.650;2023-04-24T13:00:42;18.30;;;3.45;;
37851;SDS011;23691;52.486;4.650;2023-04-24T13:03:09;24.02;;;3.80;;
37851;SDS011;23691;52.486;4.650;2023-04-24T13:05:34;14.27;;;3.10;;
37851;SDS011;23691;52.486;4.650;2023-04-24T13:08:00;17.23;;;3.00;;
37851;SDS011;23691;52.486;4.650;2023-04-24T13:10:25;19.90;;;3.20;;
37851;SDS011;23691;52.486;4.650;2023-04-24T13:12:50;24.00;;;4.35;;
37851;SDS011;23691;52.486;4.650;2023-04-24T13:15:19;14.75;;;2.78;;
37851;SDS011;23691;52.486;4.650;2023-04-24T13:17:45;17.38;;;3.30;;
37851;SDS011;23691;52.486;4.650;2023-04-24T13:20:10;18.58;;;3.25;;
37851;SDS011;23691;52.486;4.650;2023-04-24T13:22:35;18.13;;;3.45;;
37851;SDS011;23691;52.486;4.650;2023-04-24T13:25:01;18.73;;;3.38;;
37851;SDS011;23691;52.486;4.650;2023-04-24T13:27:26;17.58;;;3.20;;
37851;SDS011;23691;52.486;4.650;2023-04-24T13:29:52;19.45;;;3.40;;
37851;SDS011;23691;52.486;4.650;2023-04-24T13:32:17;19.77;;;3.22;;
37851;SDS011;23691;52.486;4.650;2023-04-24T13:34:43;17.08;;;2.90;;
37851;SDS011;23691;52.486;4.650;2023-04-24T13:37:08;14.88;;;2.75;;
37851;SDS011;23691;52.486;4.650;2023-04-24T13:39:33;14.35;;;2.47;;
37851;SDS011;23691;52.486;4.650;2023-04-24T13:41:59;15.52;;;2.67;;
37851;SDS011;23691;52.486;4.650;2023-04-24T13:44:24;21.10;;;3.20;;
37851;SDS011;23691;52.486;4.650;2023-04-24T13:46:50;22.27;;;3.35;;
37851;SDS011;23691;52.486;4.650;2023-04-24T13:49:21;22.92;;;3.83;;
37851;SDS011;23691;52.486;4.650;2023-04-24T13:51:47;21.02;;;3.97;;
37851;SDS011;23691;52.486;4.650;2023-04-24T13:56:40;24.20;;;3.88;;
37851;SDS011;23691;52.486;4.650;2023-04-24T13:59:05;22.23;;;3.83;;
37851;SDS011;23691;52.486;4.650;2023-04-24T14:01:31;24.25;;;4.03;;
37851;SDS011;23691;52.486;4.650;2023-04-24T14:03:57;23.02;;;3.55;;
37851;SDS011;23691;52.486;4.650;2023-04-24T14:06:22;22.67;;;3.92;;
37851;SDS011;23691;52.486;4.650;2023-04-24T14:08:48;23.00;;;3.63;;
37851;SDS011;23691;52.486;4.650;2023-04-24T14:11:14;23.83;;;3.90;;
37851;SDS011;23691;52.486;4.650;2023-04-24T14:13:40;24.45;;;3.63;;
37851;SDS011;23691;52.486;4.650;2023-04-24T14:16:06;24.20;;;3.72;;
37851;SDS011;23691;52.486;4.650;2023-04-24T14:18:32;21.02;;;3.88;;
37851;SDS011;23691;52.486;4.650;2023-04-24T14:21:00;20.10;;;3.67;;
37851;SDS011;23691;52.486;4.650;2023-04-24T14:23:26;19.85;;;3.53;;
37851;SDS011;23691;52.486;4.650;2023-04-24T14:25:52;25.20;;;4.00;;
37851;SDS011;23691;52.486;4.650;2023-04-24T14:28:18;24.17;;;3.65;;
37851;SDS011;23691;52.486;4.650;2023-04-24T14:30:45;20.73;;;3.00;;
37851;SDS011;23691;52.486;4.650;2023-04-24T14:33:11;20.15;;;3.88;;
37851;SDS011;23691;52.486;4.650;2023-04-24T14:35:37;21.40;;;3.75;;
37851;SDS011;23691;52.486;4.650;2023-04-24T14:40:31;21.98;;;3.75;;
37851;SDS011;23691;52.486;4.650;2023-04-24T14:42:57;20.92;;;3.30;;
37851;SDS011;23691;52.486;4.650;2023-04-24T14:45:23;18.42;;;3.03;;
37851;SDS011;23691;52.486;4.650;2023-04-24T14:47:54;20.38;;;3.35;;
37851;SDS011;23691;52.486;4.650;2023-04-24T14:50:20;17.38;;;3.30;;
37851;SDS011;23691;52.486;4.650;2023-04-24T14:52:46;15.77;;;2.88;;
37851;SDS011;23691;52.486;4.650;2023-04-24T14:55:11;15.75;;;2.60;;